Adco, Washington
Current Conditions -  °F | °C
As of 11:53 AM on Thursday 23 Oct 2014 (Local Time) from KEPH Reporting Station
Broken Clouds Broken Clouds  
Wind Chill: 12°   Ceiling: 11000
Heat Index: 12°   Visibility: 10mi
Dew Point:   Wind: 8mph
Humidity: 83%   Direction: 210°SSW
Pressure: 29.77"   Gusts: NA
Location:  47.4314°N, 119.485°W
Report Text: KEPH 231853Z AUTO 21007KT 10SM BKN110 12/09 A2977 RMK AO2 SLP080 T01220094
Loading
Personal Weather Stations






























Interactive Weather Map
Tropical Storm Tracking
New forecast layout! Learn more

10-Day Weather Forecast

Advertisements
Track Severe Weather on mobile